sensor_id;sensor_type;location;lat;lon;timestamp;P1;durP1;ratioP1;P2;durP2;ratioP2
15970;SDS011;59785;52.582;13.892;2022-09-29T00:00:11;18.88;;;12.05;;
15970;SDS011;59785;52.582;13.892;2022-09-29T00:02:39;17.98;;;11.57;;
15970;SDS011;59785;52.582;13.892;2022-09-29T00:05:05;18.23;;;11.85;;
15970;SDS011;59785;52.582;13.892;2022-09-29T00:07:31;17.38;;;11.57;;
15970;SDS011;59785;52.582;13.892;2022-09-29T00:09:58;17.85;;;11.77;;
15970;SDS011;59785;52.582;13.892;2022-09-29T00:12:24;17.85;;;11.68;;
15970;SDS011;59785;52.582;13.892;2022-09-29T00:14:50;19.25;;;12.52;;
15970;SDS011;59785;52.582;13.892;2022-09-29T00:17:16;18.35;;;11.23;;
15970;SDS011;59785;52.582;13.892;2022-09-29T00:19:43;17.40;;;11.38;;
15970;SDS011;59785;52.582;13.892;2022-09-29T00:22:09;17.48;;;10.80;;
15970;SDS011;59785;52.582;13.892;2022-09-29T00:24:35;16.27;;;11.27;;
15970;SDS011;59785;52.582;13.892;2022-09-29T00:27:01;19.15;;;10.95;;
15970;SDS011;59785;52.582;13.892;2022-09-29T00:29:27;18.73;;;11.18;;
15970;SDS011;59785;52.582;13.892;2022-09-29T00:31:54;20.08;;;11.68;;
15970;SDS011;59785;52.582;13.892;2022-09-29T00:34:20;19.65;;;11.32;;
15970;SDS011;59785;52.582;13.892;2022-09-29T00:36:46;20.13;;;11.98;;
15970;SDS011;59785;52.582;13.892;2022-09-29T00:39:12;20.08;;;12.68;;
15970;SDS011;59785;52.582;13.892;2022-09-29T00:41:39;19.02;;;11.60;;
15970;SDS011;59785;52.582;13.892;2022-09-29T00:44:51;22.35;;;11.45;;
15970;SDS011;59785;52.582;13.892;2022-09-29T00:47:25;20.80;;;11.55;;
15970;SDS011;59785;52.582;13.892;2022-09-29T00:49:57;21.13;;;12.45;;
15970;SDS011;59785;52.582;13.892;2022-09-29T00:52:29;21.92;;;12.25;;
15970;SDS011;59785;52.582;13.892;2022-09-29T00:57:34;22.85;;;12.45;;
15970;SDS011;59785;52.582;13.892;2022-09-29T01:00:05;25.83;;;13.25;;
15970;SDS011;59785;52.582;13.892;2022-09-29T01:02:35;26.83;;;13.00;;
15970;SDS011;59785;52.582;13.892;2022-09-29T01:05:05;27.25;;;13.25;;
15970;SDS011;59785;52.582;13.892;2022-09-29T01:07:36;31.35;;;14.60;;
15970;SDS011;59785;52.582;13.892;2022-09-29T01:10:02;39.20;;;15.25;;
15970;SDS011;59785;52.582;13.892;2022-09-29T01:12:28;30.70;;;15.07;;
15970;SDS011;59785;52.582;13.892;2022-09-29T01:14:55;35.60;;;15.82;;
15970;SDS011;59785;52.582;13.892;2022-09-29T01:17:21;38.65;;;17.65;;
15970;SDS011;59785;52.582;13.892;2022-09-29T01:22:55;34.75;;;15.35;;
15970;SDS011;59785;52.582;13.892;2022-09-29T01:26:00;35.40;;;14.15;;
15970;SDS011;59785;52.582;13.892;2022-09-29T01:31:26;31.48;;;14.55;;
15970;SDS011;59785;52.582;13.892;2022-09-29T01:34:07;31.73;;;14.68;;
15970;SDS011;59785;52.582;13.892;2022-09-29T01:36:50;28.27;;;14.15;;
15970;SDS011;59785;52.582;13.892;2022-09-29T01:39:46;30.52;;;14.32;;
15970;SDS011;59785;52.582;13.892;2022-09-29T01:42:18;27.77;;;14.40;;
15970;SDS011;59785;52.582;13.892;2022-09-29T01:44:55;26.58;;;14.60;;
15970;SDS011;59785;52.582;13.892;2022-09-29T01:48:03;33.13;;;14.63;;
15970;SDS011;59785;52.582;13.892;2022-09-29T01:50:32;29.05;;;14.00;;
15970;SDS011;59785;52.582;13.892;2022-09-29T01:53:06;26.77;;;13.52;;
15970;SDS011;59785;52.582;13.892;2022-09-29T01:55:37;27.45;;;13.65;;
15970;SDS011;59785;52.582;13.892;2022-09-29T01:58:09;30.73;;;13.43;;
15970;SDS011;59785;52.582;13.892;2022-09-29T02:00:42;27.20;;;14.23;;
15970;SDS011;59785;52.582;13.892;2022-09-29T02:03:25;25.60;;;13.75;;
15970;SDS011;59785;52.582;13.892;2022-09-29T02:05:57;31.38;;;14.68;;
15970;SDS011;59785;52.582;13.892;2022-09-29T02:08:28;25.85;;;14.15;;
15970;SDS011;59785;52.582;13.892;2022-09-29T02:11:01;24.95;;;13.18;;
15970;SDS011;59785;52.582;13.892;2022-09-29T02:13:30;23.98;;;13.55;;
15970;SDS011;59785;52.582;13.892;2022-09-29T02:16:00;24.70;;;14.05;;
15970;SDS011;59785;52.582;13.892;2022-09-29T04:19:19;28.02;;;13.30;;
15970;SDS011;59785;52.582;13.892;2022-09-29T04:21:45;31.60;;;14.98;;
15970;SDS011;59785;52.582;13.892;2022-09-29T04:24:11;34.03;;;14.88;;
15970;SDS011;59785;52.582;13.892;2022-09-29T04:26:38;29.63;;;14.65;;
15970;SDS011;59785;52.582;13.892;2022-09-29T04:29:05;32.92;;;14.90;;
15970;SDS011;59785;52.582;13.892;2022-09-29T04:31:31;32.42;;;14.88;;
15970;SDS011;59785;52.582;13.892;2022-09-29T04:33:57;28.85;;;14.48;;
15970;SDS011;59785;52.582;13.892;2022-09-29T04:36:23;30.42;;;14.15;;
15970;SDS011;59785;52.582;13.892;2022-09-29T04:38:49;27.48;;;13.63;;
15970;SDS011;59785;52.582;13.892;2022-09-29T04:41:16;27.52;;;14.65;;
15970;SDS011;59785;52.582;13.892;2022-09-29T04:43:43;28.17;;;14.65;;
15970;SDS011;59785;52.582;13.892;2022-09-29T04:46:09;27.13;;;14.32;;
15970;SDS011;59785;52.582;13.892;2022-09-29T04:48:36;24.95;;;13.57;;
15970;SDS011;59785;52.582;13.892;2022-09-29T04:51:03;30.73;;;15.15;;
15970;SDS011;59785;52.582;13.892;2022-09-29T04:53:29;28.75;;;14.73;;
15970;SDS011;59785;52.582;13.892;2022-09-29T04:55:56;28.85;;;15.57;;
15970;SDS011;59785;52.582;13.892;2022-09-29T04:58:22;27.55;;;13.88;;
15970;SDS011;59785;52.582;13.892;2022-09-29T05:00:48;25.35;;;13.75;;
15970;SDS011;59785;52.582;13.892;2022-09-29T05:03:14;41.03;;;19.73;;
15970;SDS011;59785;52.582;13.892;2022-09-29T05:05:40;26.90;;;13.68;;
15970;SDS011;59785;52.582;13.892;2022-09-29T05:08:06;27.70;;;14.43;;
15970;SDS011;59785;52.582;13.892;2022-09-29T05:10:33;26.73;;;15.10;;
15970;SDS011;59785;52.582;13.892;2022-09-29T05:12:59;27.58;;;14.50;;
15970;SDS011;59785;52.582;13.892;2022-09-29T05:15:25;29.83;;;14.57;;
15970;SDS011;59785;52.582;13.892;2022-09-29T05:17:52;28.67;;;13.63;;
15970;SDS011;59785;52.582;13.892;2022-09-29T05:20:18;26.55;;;13.70;;
15970;SDS011;59785;52.582;13.892;2022-09-29T05:22:44;30.13;;;13.88;;
15970;SDS011;59785;52.582;13.892;2022-09-29T05:25:10;24.20;;;13.45;;
15970;SDS011;59785;52.582;13.892;2022-09-29T05:27:36;24.40;;;13.57;;
15970;SDS011;59785;52.582;13.892;2022-09-29T05:30:03;26.17;;;13.57;;
15970;SDS011;59785;52.582;13.892;2022-09-29T05:32:29;20.80;;;12.77;;
15970;SDS011;59785;52.582;13.892;2022-09-29T05:34:56;21.90;;;12.55;;
15970;SDS011;59785;52.582;13.892;2022-09-29T05:37:22;23.50;;;12.75;;
15970;SDS011;59785;52.582;13.892;2022-09-29T05:39:48;24.10;;;12.40;;
15970;SDS011;59785;52.582;13.892;2022-09-29T05:42:15;20.05;;;11.27;;
15970;SDS011;59785;52.582;13.892;2022-09-29T05:44:41;19.70;;;12.65;;
15970;SDS011;59785;52.582;13.892;2022-09-29T05:47:07;20.58;;;11.02;;
15970;SDS011;59785;52.582;13.892;2022-09-29T05:49:33;20.33;;;11.77;;
15970;SDS011;59785;52.582;13.892;2022-09-29T05:52:01;19.95;;;10.75;;
15970;SDS011;59785;52.582;13.892;2022-09-29T05:54:27;17.20;;;11.43;;
15970;SDS011;59785;52.582;13.892;2022-09-29T05:56:53;21.10;;;12.00;;
15970;SDS011;59785;52.582;13.892;2022-09-29T05:59:20;19.80;;;12.30;;
15970;SDS011;59785;52.582;13.892;2022-09-29T06:01:46;20.35;;;11.55;;
15970;SDS011;59785;52.582;13.892;2022-09-29T06:04:13;18.58;;;11.77;;
15970;SDS011;59785;52.582;13.892;2022-09-29T06:06:39;21.83;;;11.50;;
15970;SDS011;59785;52.582;13.892;2022-09-29T06:09:06;19.83;;;12.07;;
15970;SDS011;59785;52.582;13.892;2022-09-29T06:11:32;18.73;;;10.48;;
15970;SDS011;59785;52.582;13.892;2022-09-29T06:13:58;18.35;;;11.75;;
15970;SDS011;59785;52.582;13.892;2022-09-29T06:16:27;19.23;;;11.65;;
15970;SDS011;59785;52.582;13.892;2022-09-29T06:18:55;20.10;;;12.20;;
15970;SDS011;59785;52.582;13.892;2022-09-29T06:21:22;17.20;;;10.82;;
15970;SDS011;59785;52.582;13.892;2022-09-29T06:23:50;18.73;;;10.35;;
15970;SDS011;59785;52.582;13.892;2022-09-29T06:26:18;20.17;;;12.18;;
15970;SDS011;59785;52.582;13.892;2022-09-29T06:28:48;25.58;;;12.40;;
15970;SDS011;59785;52.582;13.892;2022-09-29T06:31:18;20.50;;;12.27;;
15970;SDS011;59785;52.582;13.892;2022-09-29T06:33:47;24.00;;;11.77;;
15970;SDS011;59785;52.582;13.892;2022-09-29T06:36:20;21.40;;;11.23;;
15970;SDS011;59785;52.582;13.892;2022-09-29T06:39:08;18.20;;;10.93;;
15970;SDS011;59785;52.582;13.892;2022-09-29T06:41:36;18.35;;;10.88;;
15970;SDS011;59785;52.582;13.892;2022-09-29T06:44:05;20.52;;;12.07;;
15970;SDS011;59785;52.582;13.892;2022-09-29T06:46:31;20.27;;;11.30;;
15970;SDS011;59785;52.582;13.892;2022-09-29T06:48:57;18.85;;;11.30;;
15970;SDS011;59785;52.582;13.892;2022-09-29T06:51:24;22.42;;;11.88;;
15970;SDS011;59785;52.582;13.892;2022-09-29T06:54:05;19.75;;;12.20;;
15970;SDS011;59785;52.582;13.892;2022-09-29T06:56:37;19.65;;;11.88;;
15970;SDS011;59785;52.582;13.892;2022-09-29T06:59:03;20.15;;;11.85;;
15970;SDS011;59785;52.582;13.892;2022-09-29T07:01:29;19.65;;;12.23;;
15970;SDS011;59785;52.582;13.892;2022-09-29T07:03:55;21.35;;;13.43;;
15970;SDS011;59785;52.582;13.892;2022-09-29T07:06:21;22.52;;;12.75;;
15970;SDS011;59785;52.582;13.892;2022-09-29T07:08:52;22.80;;;13.40;;
15970;SDS011;59785;52.582;13.892;2022-09-29T07:11:19;20.30;;;12.93;;
15970;SDS011;59785;52.582;13.892;2022-09-29T07:13:45;21.83;;;12.90;;
15970;SDS011;59785;52.582;13.892;2022-09-29T07:16:12;22.58;;;13.55;;
15970;SDS011;59785;52.582;13.892;2022-09-29T07:18:39;20.10;;;12.75;;
15970;SDS011;59785;52.582;13.892;2022-09-29T07:21:09;24.48;;;13.93;;
15970;SDS011;59785;52.582;13.892;2022-09-29T07:23:36;21.15;;;13.32;;
15970;SDS011;59785;52.582;13.892;2022-09-29T07:26:04;22.92;;;14.30;;
15970;SDS011;59785;52.582;13.892;2022-09-29T07:28:31;25.45;;;15.93;;
15970;SDS011;59785;52.582;13.892;2022-09-29T07:31:01;26.40;;;14.95;;
15970;SDS011;59785;52.582;13.892;2022-09-29T07:33:40;24.58;;;15.25;;
15970;SDS011;59785;52.582;13.892;2022-09-29T07:36:06;25.92;;;15.93;;
15970;SDS011;59785;52.582;13.892;2022-09-29T07:38:32;25.95;;;15.18;;
15970;SDS011;59785;52.582;13.892;2022-09-29T07:40:59;38.95;;;15.98;;
15970;SDS011;59785;52.582;13.892;2022-09-29T07:43:29;29.75;;;15.85;;
15970;SDS011;59785;52.582;13.892;2022-09-29T07:45:56;24.60;;;15.18;;
15970;SDS011;59785;52.582;13.892;2022-09-29T07:48:22;27.05;;;16.88;;
15970;SDS011;59785;52.582;13.892;2022-09-29T07:51:02;24.38;;;15.27;;
15970;SDS011;59785;52.582;13.892;2022-09-29T07:53:30;29.27;;;16.92;;
15970;SDS011;59785;52.582;13.892;2022-09-29T07:56:03;27.65;;;17.05;;
15970;SDS011;59785;52.582;13.892;2022-09-29T07:58:34;27.27;;;16.17;;
15970;SDS011;59785;52.582;13.892;2022-09-29T08:01:02;25.02;;;16.10;;
15970;SDS011;59785;52.582;13.892;2022-09-29T08:03:31;25.60;;;17.15;;
15970;SDS011;59785;52.582;13.892;2022-09-29T08:05:58;29.38;;;16.95;;
15970;SDS011;59785;52.582;13.892;2022-09-29T08:08:24;23.92;;;16.50;;
15970;SDS011;59785;52.582;13.892;2022-09-29T08:10:51;27.05;;;16.17;;
15970;SDS011;59785;52.582;13.892;2022-09-29T08:13:18;23.55;;;16.33;;
15970;SDS011;59785;52.582;13.892;2022-09-29T08:15:44;22.08;;;15.52;;
15970;SDS011;59785;52.582;13.892;2022-09-29T08:18:11;22.95;;;14.68;;
15970;SDS011;59785;52.582;13.892;2022-09-29T08:20:37;21.33;;;14.30;;
15970;SDS011;59785;52.582;13.892;2022-09-29T08:23:03;23.50;;;15.18;;
15970;SDS011;59785;52.582;13.892;2022-09-29T08:25:29;24.65;;;15.63;;
15970;SDS011;59785;52.582;13.892;2022-09-29T08:27:55;21.52;;;14.90;;
15970;SDS011;59785;52.582;13.892;2022-09-29T08:30:21;20.05;;;13.88;;
15970;SDS011;59785;52.582;13.892;2022-09-29T08:32:53;23.65;;;13.70;;
15970;SDS011;59785;52.582;13.892;2022-09-29T08:35:20;21.98;;;14.65;;
15970;SDS011;59785;52.582;13.892;2022-09-29T08:37:46;21.10;;;14.18;;
15970;SDS011;59785;52.582;13.892;2022-09-29T08:40:12;22.60;;;14.18;;
15970;SDS011;59785;52.582;13.892;2022-09-29T08:45:25;19.60;;;14.35;;
15970;SDS011;59785;52.582;13.892;2022-09-29T08:48:03;23.98;;;15.02;;
15970;SDS011;59785;52.582;13.892;2022-09-29T08:50:48;20.50;;;13.90;;
15970;SDS011;59785;52.582;13.892;2022-09-29T08:53:23;18.23;;;12.85;;
15970;SDS011;59785;52.582;13.892;2022-09-29T08:56:04;20.23;;;13.32;;
15970;SDS011;59785;52.582;13.892;2022-09-29T08:58:34;21.05;;;13.98;;
15970;SDS011;59785;52.582;13.892;2022-09-29T09:04:03;18.23;;;12.55;;
15970;SDS011;59785;52.582;13.892;2022-09-29T09:18:16;17.05;;;12.50;;
15970;SDS011;59785;52.582;13.892;2022-09-29T09:21:08;18.35;;;13.55;;
15970;SDS011;59785;52.582;13.892;2022-09-29T09:23:48;19.27;;;12.57;;
15970;SDS011;59785;52.582;13.892;2022-09-29T09:26:30;19.42;;;12.95;;
15970;SDS011;59785;52.582;13.892;2022-09-29T09:29:01;19.80;;;13.25;;
15970;SDS011;59785;52.582;13.892;2022-09-29T09:31:49;18.67;;;13.15;;
15970;SDS011;59785;52.582;13.892;2022-09-29T09:34:28;18.88;;;12.40;;
15970;SDS011;59785;52.582;13.892;2022-09-29T09:37:26;17.80;;;12.15;;
15970;SDS011;59785;52.582;13.892;2022-09-29T09:40:12;16.90;;;11.95;;
15970;SDS011;59785;52.582;13.892;2022-09-29T09:42:45;16.38;;;12.18;;
15970;SDS011;59785;52.582;13.892;2022-09-29T09:45:22;17.08;;;12.55;;
15970;SDS011;59785;52.582;13.892;2022-09-29T09:47:55;16.70;;;11.95;;
15970;SDS011;59785;52.582;13.892;2022-09-29T09:50:26;15.13;;;11.55;;
15970;SDS011;59785;52.582;13.892;2022-09-29T09:52:55;15.30;;;10.75;;
15970;SDS011;59785;52.582;13.892;2022-09-29T09:55:25;16.75;;;11.95;;
15970;SDS011;59785;52.582;13.892;2022-09-29T09:57:56;14.65;;;11.40;;
15970;SDS011;59785;52.582;13.892;2022-09-29T10:00:31;15.95;;;11.43;;
15970;SDS011;59785;52.582;13.892;2022-09-29T10:03:03;21.27;;;12.05;;
15970;SDS011;59785;52.582;13.892;2022-09-29T10:05:35;15.50;;;10.07;;
15970;SDS011;59785;52.582;13.892;2022-09-29T10:08:19;15.60;;;10.65;;
15970;SDS011;59785;52.582;13.892;2022-09-29T10:10:50;14.18;;;10.23;;
15970;SDS011;59785;52.582;13.892;2022-09-29T10:13:25;12.93;;;9.68;;
15970;SDS011;59785;52.582;13.892;2022-09-29T10:15:57;11.85;;;8.98;;
15970;SDS011;59785;52.582;13.892;2022-09-29T10:18:49;12.45;;;9.45;;
15970;SDS011;59785;52.582;13.892;2022-09-29T10:23:51;15.48;;;10.20;;
15970;SDS011;59785;52.582;13.892;2022-09-29T10:26:22;12.52;;;9.88;;
15970;SDS011;59785;52.582;13.892;2022-09-29T10:28:52;10.98;;;8.63;;
15970;SDS011;59785;52.582;13.892;2022-09-29T10:31:20;12.35;;;9.23;;
15970;SDS011;59785;52.582;13.892;2022-09-29T10:33:50;11.50;;;9.23;;
15970;SDS011;59785;52.582;13.892;2022-09-29T10:36:47;13.88;;;9.18;;
15970;SDS011;59785;52.582;13.892;2022-09-29T10:41:58;11.30;;;8.15;;
15970;SDS011;59785;52.582;13.892;2022-09-29T10:44:29;10.52;;;8.35;;
15970;SDS011;59785;52.582;13.892;2022-09-29T10:46:57;11.85;;;9.15;;
15970;SDS011;59785;52.582;13.892;2022-09-29T10:49:25;12.45;;;8.60;;
15970;SDS011;59785;52.582;13.892;2022-09-29T10:52:04;11.13;;;7.63;;
15970;SDS011;59785;52.582;13.892;2022-09-29T10:54:33;10.65;;;8.45;;
15970;SDS011;59785;52.582;13.892;2022-09-29T10:57:11;13.20;;;10.25;;
15970;SDS011;59785;52.582;13.892;2022-09-29T11:02:36;10.30;;;8.10;;
15970;SDS011;59785;52.582;13.892;2022-09-29T11:05:15;11.38;;;9.43;;
15970;SDS011;59785;52.582;13.892;2022-09-29T11:07:43;10.52;;;8.57;;
15970;SDS011;59785;52.582;13.892;2022-09-29T11:12:56;10.90;;;8.57;;
15970;SDS011;59785;52.582;13.892;2022-09-29T11:15:28;12.55;;;8.50;;
15970;SDS011;59785;52.582;13.892;2022-09-29T11:18:04;11.63;;;8.20;;
15970;SDS011;59785;52.582;13.892;2022-09-29T11:20:44;11.77;;;8.73;;
15970;SDS011;59785;52.582;13.892;2022-09-29T11:23:30;12.48;;;8.90;;
15970;SDS011;59785;52.582;13.892;2022-09-29T11:26:09;12.50;;;9.18;;
15970;SDS011;59785;52.582;13.892;2022-09-29T11:31:25;11.50;;;7.47;;
15970;SDS011;59785;52.582;13.892;2022-09-29T11:34:31;11.57;;;7.15;;
15970;SDS011;59785;52.582;13.892;2022-09-29T11:37:29;9.52;;;7.50;;
15970;SDS011;59785;52.582;13.892;2022-09-29T11:40:16;10.93;;;7.82;;
15970;SDS011;59785;52.582;13.892;2022-09-29T11:45:41;11.35;;;8.73;;
15970;SDS011;59785;52.582;13.892;2022-09-29T11:48:30;10.20;;;7.55;;
15970;SDS011;59785;52.582;13.892;2022-09-29T11:53:54;10.85;;;8.30;;
15970;SDS011;59785;52.582;13.892;2022-09-29T11:59:34;10.98;;;7.25;;
15970;SDS011;59785;52.582;13.892;2022-09-29T12:04:59;11.18;;;7.00;;
15970;SDS011;59785;52.582;13.892;2022-09-29T12:07:53;10.75;;;7.38;;
15970;SDS011;59785;52.582;13.892;2022-09-29T12:13:22;11.13;;;7.35;;
15970;SDS011;59785;52.582;13.892;2022-09-29T12:15:59;11.02;;;8.05;;
15970;SDS011;59785;52.582;13.892;2022-09-29T12:18:30;9.15;;;7.53;;
15970;SDS011;59785;52.582;13.892;2022-09-29T12:21:37;8.57;;;6.93;;
15970;SDS011;59785;52.582;13.892;2022-09-29T12:24:08;9.05;;;6.28;;
15970;SDS011;59785;52.582;13.892;2022-09-29T12:26:40;9.55;;;5.80;;
15970;SDS011;59785;52.582;13.892;2022-09-29T12:29:19;9.43;;;6.90;;
15970;SDS011;59785;52.582;13.892;2022-09-29T12:31:54;9.30;;;7.15;;
15970;SDS011;59785;52.582;13.892;2022-09-29T12:34:31;9.70;;;6.93;;
15970;SDS011;59785;52.582;13.892;2022-09-29T12:37:13;10.23;;;6.85;;
15970;SDS011;59785;52.582;13.892;2022-09-29T12:39:51;9.27;;;5.97;;
15970;SDS011;59785;52.582;13.892;2022-09-29T12:42:46;9.25;;;6.40;;
15970;SDS011;59785;52.582;13.892;2022-09-29T12:45:34;11.32;;;7.18;;
15970;SDS011;59785;52.582;13.892;2022-09-29T12:48:23;7.45;;;5.22;;
15970;SDS011;59785;52.582;13.892;2022-09-29T12:54:00;6.85;;;5.38;;
15970;SDS011;59785;52.582;13.892;2022-09-29T12:56:45;8.25;;;6.60;;
15970;SDS011;59785;52.582;13.892;2022-09-29T13:07:52;6.35;;;5.75;;
15970;SDS011;59785;52.582;13.892;2022-09-29T13:13:50;5.22;;;4.43;;
15970;SDS011;59785;52.582;13.892;2022-09-29T13:17:27;7.75;;;4.50;;
15970;SDS011;59785;52.582;13.892;2022-09-29T13:19:46;6.25;;;4.15;;
15970;SDS011;59785;52.582;13.892;2022-09-29T13:28:37;5.05;;;3.88;;
15970;SDS011;59785;52.582;13.892;2022-09-29T13:31:08;4.75;;;3.42;;
15970;SDS011;59785;52.582;13.892;2022-09-29T13:33:39;6.07;;;3.75;;
15970;SDS011;59785;52.582;13.892;2022-09-29T13:36:06;6.72;;;4.13;;
15970;SDS011;59785;52.582;13.892;2022-09-29T13:38:35;5.00;;;4.00;;
15970;SDS011;59785;52.582;13.892;2022-09-29T13:41:14;5.97;;;4.32;;
15970;SDS011;59785;52.582;13.892;2022-09-29T13:46:35;4.93;;;3.67;;
15970;SDS011;59785;52.582;13.892;2022-09-29T13:59:46;3.90;;;3.50;;
15970;SDS011;59785;52.582;13.892;2022-09-29T14:02:33;4.95;;;3.75;;
15970;SDS011;59785;52.582;13.892;2022-09-29T14:05:03;6.90;;;4.88;;
15970;SDS011;59785;52.582;13.892;2022-09-29T14:10:20;7.32;;;5.00;;
15970;SDS011;59785;52.582;13.892;2022-09-29T14:12:59;5.30;;;4.18;;
15970;SDS011;59785;52.582;13.892;2022-09-29T14:15:32;7.00;;;4.90;;
15970;SDS011;59785;52.582;13.892;2022-09-29T14:18:03;6.00;;;4.03;;
15970;SDS011;59785;52.582;13.892;2022-09-29T14:20:41;10.70;;;5.47;;
15970;SDS011;59785;52.582;13.892;2022-09-29T14:23:45;6.90;;;5.53;;
15970;SDS011;59785;52.582;13.892;2022-09-29T14:26:40;7.78;;;5.43;;
15970;SDS011;59785;52.582;13.892;2022-09-29T14:29:27;8.60;;;6.78;;
15970;SDS011;59785;52.582;13.892;2022-09-29T14:31:58;11.85;;;6.78;;
15970;SDS011;59785;52.582;13.892;2022-09-29T14:34:27;10.13;;;6.05;;
15970;SDS011;59785;52.582;13.892;2022-09-29T14:36:56;7.63;;;6.20;;
15970;SDS011;59785;52.582;13.892;2022-09-29T14:39:25;13.52;;;7.43;;
15970;SDS011;59785;52.582;13.892;2022-09-29T14:41:52;11.50;;;7.22;;
15970;SDS011;59785;52.582;13.892;2022-09-29T14:53:41;11.68;;;9.65;;
15970;SDS011;59785;52.582;13.892;2022-09-29T14:56:03;9.60;;;7.32;;
15970;SDS011;59785;52.582;13.892;2022-09-29T14:58:44;9.20;;;8.20;;
15970;SDS011;59785;52.582;13.892;2022-09-29T15:01:31;7.00;;;5.63;;
15970;SDS011;59785;52.582;13.892;2022-09-29T15:04:10;5.88;;;5.10;;
15970;SDS011;59785;52.582;13.892;2022-09-29T15:06:45;5.93;;;4.85;;
15970;SDS011;59785;52.582;13.892;2022-09-29T15:09:23;6.35;;;5.22;;
15970;SDS011;59785;52.582;13.892;2022-09-29T15:11:54;6.35;;;5.00;;
15970;SDS011;59785;52.582;13.892;2022-09-29T15:14:28;6.93;;;4.80;;
15970;SDS011;59785;52.582;13.892;2022-09-29T15:19:49;5.22;;;4.60;;
15970;SDS011;59785;52.582;13.892;2022-09-29T15:22:26;8.48;;;5.15;;
15970;SDS011;59785;52.582;13.892;2022-09-29T15:28:00;7.85;;;4.63;;
15970;SDS011;59785;52.582;13.892;2022-09-29T15:30:29;6.18;;;4.47;;
15970;SDS011;59785;52.582;13.892;2022-09-29T15:35:46;5.13;;;4.38;;
15970;SDS011;59785;52.582;13.892;2022-09-29T15:38:18;5.97;;;4.38;;
15970;SDS011;59785;52.582;13.892;2022-09-29T15:40:54;6.22;;;4.40;;
15970;SDS011;59785;52.582;13.892;2022-09-29T15:43:24;5.28;;;4.60;;
15970;SDS011;59785;52.582;13.892;2022-09-29T15:48:23;4.55;;;4.07;;
15970;SDS011;59785;52.582;13.892;2022-09-29T15:50:49;24.08;;;22.40;;
15970;SDS011;59785;52.582;13.892;2022-09-29T15:53:17;6.95;;;4.47;;
15970;SDS011;59785;52.582;13.892;2022-09-29T15:55:43;6.25;;;4.68;;
15970;SDS011;59785;52.582;13.892;2022-09-29T16:00:57;4.70;;;4.30;;
15970;SDS011;59785;52.582;13.892;2022-09-29T16:03:29;5.88;;;4.68;;
15970;SDS011;59785;52.582;13.892;2022-09-29T16:06:20;6.32;;;4.10;;
15970;SDS011;59785;52.582;13.892;2022-09-29T16:08:53;6.78;;;4.68;;
15970;SDS011;59785;52.582;13.892;2022-09-29T16:11:29;4.20;;;3.72;;
15970;SDS011;59785;52.582;13.892;2022-09-29T16:14:05;5.30;;;4.80;;
15970;SDS011;59785;52.582;13.892;2022-09-29T16:16:41;5.30;;;4.80;;
15970;SDS011;59785;52.582;13.892;2022-09-29T16:19:19;5.85;;;5.22;;
15970;SDS011;59785;52.582;13.892;2022-09-29T16:21:51;5.90;;;5.10;;
15970;SDS011;59785;52.582;13.892;2022-09-29T16:24:20;6.53;;;4.72;;
15970;SDS011;59785;52.582;13.892;2022-09-29T16:31:44;6.38;;;5.47;;
15970;SDS011;59785;52.582;13.892;2022-09-29T16:36:50;7.63;;;5.97;;
15970;SDS011;59785;52.582;13.892;2022-09-29T16:39:20;24.50;;;22.77;;
15970;SDS011;59785;52.582;13.892;2022-09-29T16:41:53;6.82;;;5.30;;
15970;SDS011;59785;52.582;13.892;2022-09-29T16:44:27;8.55;;;6.35;;
15970;SDS011;59785;52.582;13.892;2022-09-29T16:47:29;8.45;;;6.45;;
15970;SDS011;59785;52.582;13.892;2022-09-29T16:50:05;10.40;;;5.88;;
15970;SDS011;59785;52.582;13.892;2022-09-29T16:55:14;7.40;;;5.88;;
15970;SDS011;59785;52.582;13.892;2022-09-29T16:57:53;7.93;;;5.45;;
15970;SDS011;59785;52.582;13.892;2022-09-29T17:00:22;6.90;;;4.95;;
15970;SDS011;59785;52.582;13.892;2022-09-29T17:02:54;7.03;;;4.70;;
15970;SDS011;59785;52.582;13.892;2022-09-29T17:05:23;9.90;;;8.55;;
15970;SDS011;59785;52.582;13.892;2022-09-29T17:07:50;8.60;;;5.57;;
15970;SDS011;59785;52.582;13.892;2022-09-29T17:10:25;6.20;;;5.47;;
15970;SDS011;59785;52.582;13.892;2022-09-29T17:12:51;8.38;;;5.75;;
15970;SDS011;59785;52.582;13.892;2022-09-29T17:15:17;6.25;;;5.05;;
15970;SDS011;59785;52.582;13.892;2022-09-29T17:17:44;5.07;;;4.57;;
15970;SDS011;59785;52.582;13.892;2022-09-29T17:20:12;12.02;;;6.72;;
15970;SDS011;59785;52.582;13.892;2022-09-29T17:22:44;6.82;;;5.10;;
15970;SDS011;59785;52.582;13.892;2022-09-29T17:25:11;6.38;;;5.43;;
15970;SDS011;59785;52.582;13.892;2022-09-29T17:27:38;6.88;;;6.18;;
15970;SDS011;59785;52.582;13.892;2022-09-29T17:30:25;8.20;;;7.50;;
15970;SDS011;59785;52.582;13.892;2022-09-29T17:32:53;5.63;;;5.13;;
15970;SDS011;59785;52.582;13.892;2022-09-29T17:35:23;9.15;;;8.43;;
15970;SDS011;59785;52.582;13.892;2022-09-29T17:37:52;8.80;;;7.88;;
15970;SDS011;59785;52.582;13.892;2022-09-29T17:40:23;7.10;;;5.65;;
15970;SDS011;59785;52.582;13.892;2022-09-29T17:42:53;7.05;;;5.00;;
15970;SDS011;59785;52.582;13.892;2022-09-29T17:45:21;6.25;;;5.22;;
15970;SDS011;59785;52.582;13.892;2022-09-29T17:47:48;7.93;;;5.63;;
15970;SDS011;59785;52.582;13.892;2022-09-29T17:50:34;6.10;;;4.75;;
15970;SDS011;59785;52.582;13.892;2022-09-29T17:53:02;6.97;;;4.68;;
15970;SDS011;59785;52.582;13.892;2022-09-29T17:55:29;6.95;;;5.57;;
15970;SDS011;59785;52.582;13.892;2022-09-29T17:57:56;8.98;;;5.82;;
15970;SDS011;59785;52.582;13.892;2022-09-29T18:00:23;7.32;;;5.32;;
15970;SDS011;59785;52.582;13.892;2022-09-29T18:02:51;9.65;;;6.22;;
15970;SDS011;59785;52.582;13.892;2022-09-29T18:05:22;7.32;;;5.80;;
15970;SDS011;59785;52.582;13.892;2022-09-29T18:07:50;6.65;;;5.65;;
15970;SDS011;59785;52.582;13.892;2022-09-29T18:13:06;8.32;;;5.22;;
15970;SDS011;59785;52.582;13.892;2022-09-29T18:15:33;8.02;;;5.93;;
15970;SDS011;59785;52.582;13.892;2022-09-29T18:18:00;8.95;;;6.57;;
15970;SDS011;59785;52.582;13.892;2022-09-29T18:20:29;9.00;;;6.32;;
15970;SDS011;59785;52.582;13.892;2022-09-29T18:22:57;7.68;;;6.20;;
15970;SDS011;59785;52.582;13.892;2022-09-29T18:25:26;10.82;;;6.90;;
15970;SDS011;59785;52.582;13.892;2022-09-29T18:27:53;10.10;;;7.32;;
15970;SDS011;59785;52.582;13.892;2022-09-29T18:30:23;10.45;;;7.18;;
15970;SDS011;59785;52.582;13.892;2022-09-29T18:32:52;12.88;;;8.93;;
15970;SDS011;59785;52.582;13.892;2022-09-29T18:35:24;9.70;;;7.20;;
15970;SDS011;59785;52.582;13.892;2022-09-29T18:37:52;11.02;;;7.47;;
15970;SDS011;59785;52.582;13.892;2022-09-29T18:40:19;10.02;;;8.27;;
15970;SDS011;59785;52.582;13.892;2022-09-29T18:42:47;8.90;;;6.93;;
15970;SDS011;59785;52.582;13.892;2022-09-29T18:45:18;9.98;;;7.20;;
15970;SDS011;59785;52.582;13.892;2022-09-29T18:47:51;9.95;;;7.15;;
15970;SDS011;59785;52.582;13.892;2022-09-29T18:50:21;10.68;;;7.85;;
15970;SDS011;59785;52.582;13.892;2022-09-29T18:52:50;14.50;;;8.73;;
15970;SDS011;59785;52.582;13.892;2022-09-29T18:55:18;10.85;;;8.20;;